createdAt,value
2022-12-01T00:04:23.262Z,4.86
2022-12-01T00:09:41.344Z,4.86
2022-12-01T00:14:44.079Z,4.89
2022-12-01T00:19:47.258Z,4.79
2022-12-01T00:24:52.392Z,4.77
2022-12-01T00:29:55.145Z,4.78
2022-12-01T00:34:57.966Z,4.79
2022-12-01T00:40:02.395Z,4.80
2022-12-01T00:45:06.135Z,4.82
2022-12-01T00:50:09.666Z,4.83
2022-12-01T00:55:13.795Z,4.81
2022-12-01T01:00:18.177Z,4.71
2022-12-01T01:05:20.991Z,4.73
2022-12-01T01:10:25.164Z,4.73
2022-12-01T01:15:28.213Z,4.65
2022-12-01T01:20:31.018Z,4.58
2022-12-01T01:25:35.312Z,4.61
2022-12-01T01:30:40.380Z,4.64
2022-12-01T01:35:43.198Z,4.58
2022-12-01T01:40:48.407Z,4.60
2022-12-01T01:45:51.408Z,4.52
2022-12-01T01:50:54.271Z,4.56
2022-12-01T01:55:58.811Z,4.56
2022-12-01T02:01:01.755Z,4.56
2022-12-01T02:06:05.916Z,4.51
2022-12-01T02:11:34.464Z,4.55
2022-12-01T02:16:45.442Z,4.43
2022-12-01T02:22:04.107Z,4.50
2022-12-01T02:27:15.031Z,4.54
2022-12-01T02:32:30.470Z,4.55
2022-12-01T02:37:41.915Z,4.54
2022-12-01T02:42:54.186Z,4.51
2022-12-01T02:48:02.947Z,4.50
2022-12-01T02:53:09.124Z,4.52
2022-12-01T02:58:15.455Z,4.50
2022-12-01T03:03:35.932Z,4.52
2022-12-01T03:08:49.104Z,4.55
2022-12-01T03:14:06.567Z,4.53
2022-12-01T03:19:15.485Z,4.52
2022-12-01T03:24:20.516Z,4.56
2022-12-01T03:29:27.828Z,4.58
2022-12-01T03:34:37.885Z,4.61
2022-12-01T03:39:43.936Z,4.57
2022-12-01T03:44:50.011Z,4.59
2022-12-01T03:49:55.665Z,4.52
2022-12-01T03:55:09.110Z,4.56
2022-12-01T04:00:14.528Z,4.54
2022-12-01T04:05:23.857Z,4.50
2022-12-01T04:10:28.455Z,4.52
2022-12-01T04:15:31.251Z,4.54
2022-12-01T04:20:35.475Z,4.50
2022-12-01T04:25:38.313Z,4.44
2022-12-01T04:30:41.048Z,4.39
2022-12-01T04:35:45.195Z,4.42
2022-12-01T04:40:48.044Z,4.38
2022-12-01T04:45:50.947Z,4.40
2022-12-01T04:50:55.042Z,4.43
2022-12-01T04:55:57.874Z,4.40
2022-12-01T05:01:03.057Z,4.39
2022-12-01T05:06:09.384Z,4.35
2022-12-01T05:11:13.499Z,4.29
2022-12-01T05:16:19.133Z,4.31
2022-12-01T05:21:23.345Z,4.34
2022-12-01T05:26:26.198Z,4.32
2022-12-01T05:31:29.114Z,4.28
2022-12-01T05:36:33.742Z,4.31
2022-12-01T05:41:36.515Z,4.33
2022-12-01T05:46:39.291Z,4.26
2022-12-01T05:51:43.589Z,4.25
2022-12-01T05:56:46.409Z,4.24
2022-12-01T06:01:49.214Z,4.26
2022-12-01T06:06:53.432Z,4.16
2022-12-01T06:11:56.225Z,4.13
2022-12-01T06:16:59.002Z,4.13
2022-12-01T06:22:03.545Z,4.09
2022-12-01T06:27:06.447Z,4.04
2022-12-01T06:32:09.293Z,4.04
2022-12-01T06:37:15.468Z,4.12
2022-12-01T06:42:18.255Z,4.12
2022-12-01T06:47:21.070Z,4.15
2022-12-01T06:52:25.185Z,4.12
2022-12-01T06:57:28.064Z,4.14
2022-12-01T07:02:31.153Z,4.14
2022-12-01T07:07:38.269Z,4.10
2022-12-01T07:12:41.419Z,4.06
2022-12-01T07:17:44.170Z,4.12
2022-12-01T07:22:48.269Z,4.13
2022-12-01T07:27:51.074Z,4.14
2022-12-01T07:32:53.941Z,4.42
2022-12-01T07:37:58.085Z,4.68
2022-12-01T07:43:00.896Z,4.77
2022-12-01T07:48:03.773Z,4.91
2022-12-01T07:53:07.910Z,4.89
2022-12-01T07:58:10.703Z,4.68
2022-12-01T08:03:14.318Z,4.62
2022-12-01T08:08:18.777Z,4.48
2022-12-01T08:13:24.038Z,4.35
2022-12-01T08:18:26.835Z,4.32
2022-12-01T08:23:31.023Z,4.36
2022-12-01T08:28:36.534Z,4.37
2022-12-01T08:33:39.494Z,4.35
2022-12-01T08:38:45.875Z,4.30
2022-12-01T08:44:03.986Z,4.42
2022-12-01T08:49:07.569Z,4.46
2022-12-01T08:54:12.909Z,4.57
2022-12-01T08:59:15.743Z,4.53
2022-12-01T09:04:19.077Z,4.49
2022-12-01T09:09:27.181Z,4.54
2022-12-01T09:14:30.106Z,4.80
2022-12-01T09:19:33.270Z,4.89
2022-12-01T09:24:37.583Z,4.77
2022-12-01T09:29:40.320Z,4.72
2022-12-01T09:34:43.142Z,4.70
2022-12-01T09:39:47.459Z,4.80
2022-12-01T09:44:53.840Z,5.05
2022-12-01T09:50:00.619Z,5.08
2022-12-01T09:55:08.032Z,5.01
2022-12-01T10:00:15.820Z,4.95
2022-12-01T10:05:22.024Z,5.10
2022-12-01T10:10:29.976Z,5.11
2022-12-01T10:15:47.235Z,5.19
2022-12-01T10:20:57.847Z,5.31
2022-12-01T10:26:14.056Z,5.45
2022-12-01T10:31:21.383Z,5.35
2022-12-01T10:36:27.402Z,5.31
2022-12-01T10:41:35.376Z,5.34
2022-12-01T10:46:44.532Z,5.52
2022-12-01T10:51:55.570Z,5.70
2022-12-01T10:57:00.506Z,5.63
2022-12-01T11:02:05.235Z,5.49
2022-12-01T11:07:08.332Z,5.32
2022-12-01T11:12:16.535Z,5.19
2022-12-01T11:17:33.434Z,5.10
2022-12-01T11:22:36.404Z,5.10
2022-12-01T11:27:51.623Z,5.15
2022-12-01T11:32:57.117Z,5.15
2022-12-01T11:43:31.327Z,5.11
2022-12-01T11:48:36.244Z,5.00
2022-12-01T11:53:41.047Z,4.95
2022-12-01T11:58:47.579Z,4.96
2022-12-01T12:03:59.558Z,5.12
2022-12-01T12:09:17.002Z,5.19
2022-12-01T12:14:42.779Z,4.94
2022-12-01T12:20:08.131Z,4.87
2022-12-01T12:25:26.232Z,4.75
2022-12-01T12:30:32.949Z,4.57
2022-12-01T12:35:42.603Z,4.46
2022-12-01T12:40:54.305Z,4.39
2022-12-01T12:46:09.188Z,4.65
2022-12-01T12:51:19.235Z,4.76
2022-12-01T12:56:25.525Z,4.68
2022-12-01T13:01:34.749Z,4.59
2022-12-01T13:06:41.689Z,4.64
2022-12-01T13:11:48.579Z,4.74
2022-12-01T13:16:56.489Z,4.70
2022-12-01T13:22:00.983Z,4.71
2022-12-01T13:27:07.725Z,4.83
2022-12-01T13:32:28.705Z,4.91
2022-12-01T13:37:33.861Z,4.87
2022-12-01T13:42:37.509Z,4.72
2022-12-01T13:47:51.739Z,4.51
2022-12-01T13:53:12.040Z,4.57
2022-12-01T13:58:44.024Z,4.56
2022-12-01T14:03:56.937Z,4.53
2022-12-01T14:09:02.509Z,4.38
2022-12-01T14:14:26.424Z,4.25
2022-12-01T14:19:36.888Z,4.23
2022-12-01T14:24:43.449Z,4.18
2022-12-01T14:29:46.255Z,4.10
2022-12-01T14:34:56.984Z,4.00
2022-12-01T14:40:06.675Z,3.99
2022-12-01T14:45:14.539Z,3.93
2022-12-01T14:50:24.993Z,3.93
2022-12-01T14:55:32.383Z,3.96
2022-12-01T15:00:37.601Z,3.85
2022-12-01T15:05:44.445Z,3.85
2022-12-01T15:10:52.492Z,3.80
2022-12-01T15:15:57.302Z,3.57
2022-12-01T15:21:06.853Z,3.57
2022-12-01T15:26:19.860Z,3.62
2022-12-01T15:31:22.807Z,3.50
2022-12-01T15:36:27.179Z,3.54
2022-12-01T15:41:30.920Z,3.52
2022-12-01T15:46:35.247Z,3.58
2022-12-01T15:51:39.636Z,3.57
2022-12-01T15:56:42.790Z,3.56
2022-12-01T16:01:46.117Z,3.47
2022-12-01T16:06:58.023Z,3.46
2022-12-01T16:12:06.203Z,3.51
2022-12-01T16:17:11.071Z,3.41
2022-12-01T16:22:18.415Z,3.42
2022-12-01T16:27:24.988Z,3.39
2022-12-01T16:32:33.400Z,3.26
2022-12-01T16:37:37.619Z,3.33
2022-12-01T16:42:40.714Z,3.31
2022-12-01T16:47:44.486Z,3.31
2022-12-01T16:52:48.640Z,3.41
2022-12-01T16:57:51.438Z,3.40
2022-12-01T17:02:54.389Z,3.29
2022-12-01T17:07:58.688Z,3.25
2022-12-01T17:13:01.542Z,3.22
2022-12-01T17:18:04.462Z,3.12
2022-12-01T17:23:08.732Z,3.04
2022-12-01T17:28:11.529Z,3.03
2022-12-01T17:33:14.595Z,3.05
2022-12-01T17:38:19.528Z,3.06
2022-12-01T17:43:23.437Z,3.01
2022-12-01T17:48:27.205Z,2.97
2022-12-01T17:53:33.094Z,3.00
2022-12-01T17:58:36.812Z,3.04
2022-12-01T18:03:39.604Z,3.07
2022-12-01T18:08:44.014Z,3.06
2022-12-01T18:13:48.896Z,3.02
2022-12-01T18:18:52.205Z,2.98
2022-12-01T18:23:58.075Z,2.99
2022-12-01T18:29:04.837Z,3.01
2022-12-01T18:34:09.021Z,2.98
2022-12-01T18:39:13.259Z,2.95
2022-12-01T18:44:16.094Z,2.94
2022-12-01T18:49:19.086Z,2.93
2022-12-01T18:54:23.255Z,2.91
2022-12-01T18:59:26.874Z,2.91
2022-12-01T19:04:29.768Z,2.95
2022-12-01T19:09:34.159Z,2.96
2022-12-01T19:14:37.119Z,2.90
2022-12-01T19:19:40.016Z,2.87
2022-12-01T19:24:49.909Z,2.91
2022-12-01T19:29:53.919Z,2.95
2022-12-01T19:34:56.981Z,2.96
2022-12-01T19:40:01.067Z,2.95
2022-12-01T19:45:04.517Z,2.97
2022-12-01T19:50:08.592Z,2.96
2022-12-01T19:55:12.773Z,2.93
2022-12-01T20:00:16.227Z,2.96
2022-12-01T20:05:19.306Z,2.97
2022-12-01T20:10:23.502Z,3.00
2022-12-01T20:15:26.322Z,2.96
2022-12-01T20:20:29.155Z,2.90
2022-12-01T20:25:34.187Z,2.82
2022-12-01T20:30:40.928Z,2.79
2022-12-01T20:35:43.752Z,2.76
2022-12-01T20:40:51.035Z,2.73
2022-12-01T20:45:53.931Z,2.74
2022-12-01T20:50:56.862Z,2.79
2022-12-01T20:56:04.522Z,2.73
2022-12-01T21:01:09.514Z,2.69
2022-12-01T21:06:14.096Z,2.68
2022-12-01T21:11:42.353Z,2.75
2022-12-01T21:16:49.146Z,2.66
2022-12-01T21:21:52.147Z,2.60
2022-12-01T21:27:00.339Z,2.61
2022-12-01T21:32:12.428Z,2.66
2022-12-01T21:37:26.319Z,2.52
2022-12-01T21:42:32.823Z,2.62
2022-12-01T21:47:35.851Z,2.64
2022-12-01T21:52:41.430Z,2.65
2022-12-01T21:57:48.111Z,2.63
2022-12-01T22:02:53.225Z,2.60
2022-12-01T22:08:01.716Z,2.58
2022-12-01T22:13:10.739Z,2.56
2022-12-01T22:18:22.658Z,2.58
2022-12-01T22:23:32.800Z,2.58
2022-12-01T22:28:37.164Z,2.63
2022-12-01T22:33:39.896Z,2.68
2022-12-01T22:38:42.652Z,2.62
2022-12-01T22:43:49.349Z,2.63
2022-12-01T22:48:53.756Z,2.56
2022-12-01T22:54:01.003Z,2.57
2022-12-01T22:59:14.091Z,2.56
2022-12-01T23:04:27.683Z,2.64
2022-12-01T23:09:36.520Z,2.57
2022-12-01T23:14:44.289Z,2.58
2022-12-01T23:19:47.326Z,2.63
2022-12-01T23:24:50.429Z,2.60
2022-12-01T23:29:55.171Z,2.51
2022-12-01T23:35:00.326Z,2.51
2022-12-01T23:40:15.864Z,2.49
2022-12-01T23:45:23.655Z,2.46
2022-12-01T23:50:27.720Z,2.49
2022-12-01T23:55:31.951Z,2.55
